sensor_id;sensor_type;location;lat;lon;timestamp;P1;durP1;ratioP1;P2;durP2;ratioP2
5989;SDS011;14149;53.562;10.032;2022-12-08T00:00:39;19.23;;;10.20;;
5989;SDS011;14149;53.562;10.032;2022-12-08T00:03:05;27.53;;;12.33;;
5989;SDS011;14149;53.562;10.032;2022-12-08T00:05:31;21.97;;;10.70;;
5989;SDS011;14149;53.562;10.032;2022-12-08T00:08:16;23.60;;;10.93;;
5989;SDS011;14149;53.562;10.032;2022-12-08T00:11:01;22.90;;;10.60;;
5989;SDS011;14149;53.562;10.032;2022-12-08T00:13:27;28.07;;;11.70;;
5989;SDS011;14149;53.562;10.032;2022-12-08T00:15:58;25.50;;;12.73;;
5989;SDS011;14149;53.562;10.032;2022-12-08T00:18:24;23.63;;;11.87;;
5989;SDS011;14149;53.562;10.032;2022-12-08T00:20:57;27.33;;;12.47;;
5989;SDS011;14149;53.562;10.032;2022-12-08T00:23:23;22.13;;;10.70;;
5989;SDS011;14149;53.562;10.032;2022-12-08T00:25:49;22.80;;;11.50;;
5989;SDS011;14149;53.562;10.032;2022-12-08T00:28:15;26.03;;;11.97;;
5989;SDS011;14149;53.562;10.032;2022-12-08T00:30:41;24.53;;;12.83;;
5989;SDS011;14149;53.562;10.032;2022-12-08T00:33:08;27.40;;;11.17;;
5989;SDS011;14149;53.562;10.032;2022-12-08T00:35:34;24.87;;;14.00;;
5989;SDS011;14149;53.562;10.032;2022-12-08T00:38:00;23.70;;;13.10;;
5989;SDS011;14149;53.562;10.032;2022-12-08T00:40:26;27.63;;;13.23;;
5989;SDS011;14149;53.562;10.032;2022-12-08T00:42:53;28.10;;;15.33;;
5989;SDS011;14149;53.562;10.032;2022-12-08T00:45:19;25.60;;;13.57;;
5989;SDS011;14149;53.562;10.032;2022-12-08T00:47:45;25.83;;;12.57;;
5989;SDS011;14149;53.562;10.032;2022-12-08T00:50:11;20.87;;;10.87;;
5989;SDS011;14149;53.562;10.032;2022-12-08T00:52:37;25.63;;;12.07;;
5989;SDS011;14149;53.562;10.032;2022-12-08T00:55:04;21.30;;;11.30;;
5989;SDS011;14149;53.562;10.032;2022-12-08T00:57:30;22.13;;;10.67;;
5989;SDS011;14149;53.562;10.032;2022-12-08T00:59:56;23.10;;;10.87;;
5989;SDS011;14149;53.562;10.032;2022-12-08T01:02:23;20.30;;;11.67;;
5989;SDS011;14149;53.562;10.032;2022-12-08T01:04:49;18.00;;;9.70;;
5989;SDS011;14149;53.562;10.032;2022-12-08T01:07:15;23.37;;;13.07;;
5989;SDS011;14149;53.562;10.032;2022-12-08T01:09:41;22.10;;;11.40;;
5989;SDS011;14149;53.562;10.032;2022-12-08T01:12:08;18.00;;;9.87;;
5989;SDS011;14149;53.562;10.032;2022-12-08T01:14:37;20.23;;;10.67;;
5989;SDS011;14149;53.562;10.032;2022-12-08T01:17:03;20.13;;;9.73;;
5989;SDS011;14149;53.562;10.032;2022-12-08T01:19:29;15.47;;;9.00;;
5989;SDS011;14149;53.562;10.032;2022-12-08T01:21:55;23.20;;;12.23;;
5989;SDS011;14149;53.562;10.032;2022-12-08T01:24:21;23.20;;;9.03;;
5989;SDS011;14149;53.562;10.032;2022-12-08T01:26:48;16.87;;;9.73;;
5989;SDS011;14149;53.562;10.032;2022-12-08T01:29:15;17.77;;;8.27;;
5989;SDS011;14149;53.562;10.032;2022-12-08T01:31:41;22.30;;;10.03;;
5989;SDS011;14149;53.562;10.032;2022-12-08T01:34:07;15.77;;;9.10;;
5989;SDS011;14149;53.562;10.032;2022-12-08T01:36:34;17.33;;;9.37;;
5989;SDS011;14149;53.562;10.032;2022-12-08T01:39:01;20.07;;;11.00;;
5989;SDS011;14149;53.562;10.032;2022-12-08T01:41:31;17.47;;;10.40;;
5989;SDS011;14149;53.562;10.032;2022-12-08T01:46:35;14.70;;;8.53;;
5989;SDS011;14149;53.562;10.032;2022-12-08T01:49:03;15.53;;;8.33;;
5989;SDS011;14149;53.562;10.032;2022-12-08T01:51:32;21.80;;;10.70;;
5989;SDS011;14149;53.562;10.032;2022-12-08T01:53:59;19.77;;;11.27;;
5989;SDS011;14149;53.562;10.032;2022-12-08T01:56:27;17.53;;;9.67;;
5989;SDS011;14149;53.562;10.032;2022-12-08T01:58:56;19.10;;;10.03;;
5989;SDS011;14149;53.562;10.032;2022-12-08T02:01:22;18.90;;;9.30;;
5989;SDS011;14149;53.562;10.032;2022-12-08T02:03:50;19.47;;;9.50;;
5989;SDS011;14149;53.562;10.032;2022-12-08T02:06:17;13.60;;;7.67;;
5989;SDS011;14149;53.562;10.032;2022-12-08T02:08:44;11.83;;;6.70;;
5989;SDS011;14149;53.562;10.032;2022-12-08T02:11:11;12.10;;;7.07;;
5989;SDS011;14149;53.562;10.032;2022-12-08T02:13:38;15.13;;;8.07;;
5989;SDS011;14149;53.562;10.032;2022-12-08T02:21:02;17.00;;;8.13;;
5989;SDS011;14149;53.562;10.032;2022-12-08T02:23:51;14.40;;;7.17;;
5989;SDS011;14149;53.562;10.032;2022-12-08T02:26:40;13.80;;;7.00;;
5989;SDS011;14149;53.562;10.032;2022-12-08T02:29:26;17.17;;;7.27;;
5989;SDS011;14149;53.562;10.032;2022-12-08T02:32:04;12.43;;;6.50;;
5989;SDS011;14149;53.562;10.032;2022-12-08T02:34:36;17.80;;;9.20;;
5989;SDS011;14149;53.562;10.032;2022-12-08T02:37:09;12.90;;;7.87;;
5989;SDS011;14149;53.562;10.032;2022-12-08T02:42:34;13.37;;;6.97;;
5989;SDS011;14149;53.562;10.032;2022-12-08T02:45:11;16.60;;;8.27;;
5989;SDS011;14149;53.562;10.032;2022-12-08T02:47:39;17.17;;;8.70;;
5989;SDS011;14149;53.562;10.032;2022-12-08T02:50:05;17.93;;;8.07;;
5989;SDS011;14149;53.562;10.032;2022-12-08T02:55:02;18.90;;;10.60;;
5989;SDS011;14149;53.562;10.032;2022-12-08T02:57:38;19.33;;;9.90;;
5989;SDS011;14149;53.562;10.032;2022-12-08T03:00:10;16.53;;;8.70;;
5989;SDS011;14149;53.562;10.032;2022-12-08T03:02:44;13.50;;;7.87;;
5989;SDS011;14149;53.562;10.032;2022-12-08T03:10:23;12.60;;;7.23;;
5989;SDS011;14149;53.562;10.032;2022-12-08T03:12:52;17.00;;;10.17;;
5989;SDS011;14149;53.562;10.032;2022-12-08T03:15:21;16.97;;;8.60;;
5989;SDS011;14149;53.562;10.032;2022-12-08T03:17:49;15.00;;;8.33;;
5989;SDS011;14149;53.562;10.032;2022-12-08T03:20:17;16.60;;;8.80;;
5989;SDS011;14149;53.562;10.032;2022-12-08T03:22:45;12.07;;;5.37;;
5989;SDS011;14149;53.562;10.032;2022-12-08T03:25:12;17.67;;;8.40;;
5989;SDS011;14149;53.562;10.032;2022-12-08T03:27:39;17.60;;;8.47;;
5989;SDS011;14149;53.562;10.032;2022-12-08T03:30:06;11.13;;;6.70;;
5989;SDS011;14149;53.562;10.032;2022-12-08T03:32:33;17.40;;;7.43;;
5989;SDS011;14149;53.562;10.032;2022-12-08T03:35:01;14.40;;;7.67;;
5989;SDS011;14149;53.562;10.032;2022-12-08T03:37:27;13.27;;;7.00;;
5989;SDS011;14149;53.562;10.032;2022-12-08T03:39:54;11.60;;;6.83;;
5989;SDS011;14149;53.562;10.032;2022-12-08T03:42:20;12.90;;;7.23;;
5989;SDS011;14149;53.562;10.032;2022-12-08T03:44:46;13.87;;;7.20;;
5989;SDS011;14149;53.562;10.032;2022-12-08T03:47:12;11.90;;;6.20;;
5989;SDS011;14149;53.562;10.032;2022-12-08T03:49:38;12.30;;;6.70;;
5989;SDS011;14149;53.562;10.032;2022-12-08T03:52:04;10.60;;;7.13;;
5989;SDS011;14149;53.562;10.032;2022-12-08T03:54:30;11.40;;;6.20;;
5989;SDS011;14149;53.562;10.032;2022-12-08T03:56:57;10.90;;;5.97;;
5989;SDS011;14149;53.562;10.032;2022-12-08T03:59:23;13.20;;;5.47;;
5989;SDS011;14149;53.562;10.032;2022-12-08T04:01:49;10.27;;;5.80;;
5989;SDS011;14149;53.562;10.032;2022-12-08T04:04:15;15.20;;;7.03;;
5989;SDS011;14149;53.562;10.032;2022-12-08T04:06:41;11.00;;;5.90;;
5989;SDS011;14149;53.562;10.032;2022-12-08T04:09:07;7.60;;;4.33;;
5989;SDS011;14149;53.562;10.032;2022-12-08T04:11:33;11.03;;;6.00;;
5989;SDS011;14149;53.562;10.032;2022-12-08T04:13:59;8.70;;;5.13;;
5989;SDS011;14149;53.562;10.032;2022-12-08T04:16:25;6.83;;;3.63;;
5989;SDS011;14149;53.562;10.032;2022-12-08T04:18:52;8.33;;;4.37;;
5989;SDS011;14149;53.562;10.032;2022-12-08T04:21:18;9.47;;;4.70;;
5989;SDS011;14149;53.562;10.032;2022-12-08T04:23:45;8.90;;;4.40;;
5989;SDS011;14149;53.562;10.032;2022-12-08T04:26:11;7.30;;;4.13;;
5989;SDS011;14149;53.562;10.032;2022-12-08T04:28:38;8.80;;;3.63;;
5989;SDS011;14149;53.562;10.032;2022-12-08T04:31:04;8.03;;;3.90;;
5989;SDS011;14149;53.562;10.032;2022-12-08T04:33:31;8.43;;;4.20;;
5989;SDS011;14149;53.562;10.032;2022-12-08T04:35:57;8.20;;;4.43;;
5989;SDS011;14149;53.562;10.032;2022-12-08T04:38:23;8.00;;;4.20;;
5989;SDS011;14149;53.562;10.032;2022-12-08T04:40:49;7.73;;;4.13;;
5989;SDS011;14149;53.562;10.032;2022-12-08T04:43:15;8.20;;;4.07;;
5989;SDS011;14149;53.562;10.032;2022-12-08T04:45:41;7.53;;;4.43;;
5989;SDS011;14149;53.562;10.032;2022-12-08T04:48:08;7.97;;;4.33;;
5989;SDS011;14149;53.562;10.032;2022-12-08T04:50:37;8.33;;;4.17;;
5989;SDS011;14149;53.562;10.032;2022-12-08T04:53:04;7.20;;;4.23;;
5989;SDS011;14149;53.562;10.032;2022-12-08T04:55:30;7.43;;;3.70;;
5989;SDS011;14149;53.562;10.032;2022-12-08T04:57:56;6.73;;;3.50;;
5989;SDS011;14149;53.562;10.032;2022-12-08T05:00:22;8.23;;;3.90;;
5989;SDS011;14149;53.562;10.032;2022-12-08T05:02:48;7.20;;;3.90;;
5989;SDS011;14149;53.562;10.032;2022-12-08T05:05:14;9.83;;;4.30;;
5989;SDS011;14149;53.562;10.032;2022-12-08T05:07:40;8.03;;;4.73;;
5989;SDS011;14149;53.562;10.032;2022-12-08T05:10:07;8.47;;;4.47;;
5989;SDS011;14149;53.562;10.032;2022-12-08T05:12:33;7.63;;;4.00;;
5989;SDS011;14149;53.562;10.032;2022-12-08T05:14:59;8.63;;;4.50;;
5989;SDS011;14149;53.562;10.032;2022-12-08T05:17:25;7.60;;;4.43;;
5989;SDS011;14149;53.562;10.032;2022-12-08T05:19:51;8.23;;;4.20;;
5989;SDS011;14149;53.562;10.032;2022-12-08T05:22:17;7.57;;;4.30;;
5989;SDS011;14149;53.562;10.032;2022-12-08T05:24:43;8.57;;;4.47;;
5989;SDS011;14149;53.562;10.032;2022-12-08T05:27:09;11.37;;;4.00;;
5989;SDS011;14149;53.562;10.032;2022-12-08T05:29:36;7.97;;;4.20;;
5989;SDS011;14149;53.562;10.032;2022-12-08T05:32:02;8.27;;;5.00;;
5989;SDS011;14149;53.562;10.032;2022-12-08T05:34:28;7.53;;;4.27;;
5989;SDS011;14149;53.562;10.032;2022-12-08T05:36:54;8.43;;;4.20;;
5989;SDS011;14149;53.562;10.032;2022-12-08T05:39:20;7.10;;;4.40;;
5989;SDS011;14149;53.562;10.032;2022-12-08T05:41:46;10.20;;;4.73;;
5989;SDS011;14149;53.562;10.032;2022-12-08T05:44:12;7.53;;;4.10;;
5989;SDS011;14149;53.562;10.032;2022-12-08T05:46:38;7.40;;;4.07;;
5989;SDS011;14149;53.562;10.032;2022-12-08T05:49:04;7.17;;;3.43;;
5989;SDS011;14149;53.562;10.032;2022-12-08T05:51:30;6.17;;;3.23;;
5989;SDS011;14149;53.562;10.032;2022-12-08T05:53:57;7.10;;;4.20;;
5989;SDS011;14149;53.562;10.032;2022-12-08T05:56:23;10.97;;;4.43;;
5989;SDS011;14149;53.562;10.032;2022-12-08T05:58:49;7.77;;;4.40;;
5989;SDS011;14149;53.562;10.032;2022-12-08T06:01:22;9.10;;;4.80;;
5989;SDS011;14149;53.562;10.032;2022-12-08T06:03:49;8.17;;;4.70;;
5989;SDS011;14149;53.562;10.032;2022-12-08T06:06:15;8.07;;;3.70;;
5989;SDS011;14149;53.562;10.032;2022-12-08T06:08:41;8.67;;;3.43;;
5989;SDS011;14149;53.562;10.032;2022-12-08T06:11:08;7.67;;;4.13;;
5989;SDS011;14149;53.562;10.032;2022-12-08T06:13:34;6.37;;;3.40;;
5989;SDS011;14149;53.562;10.032;2022-12-08T06:16:06;7.70;;;4.50;;
5989;SDS011;14149;53.562;10.032;2022-12-08T06:18:32;8.17;;;4.23;;
5989;SDS011;14149;53.562;10.032;2022-12-08T06:21:08;6.83;;;3.50;;
5989;SDS011;14149;53.562;10.032;2022-12-08T06:23:35;7.50;;;3.70;;
5989;SDS011;14149;53.562;10.032;2022-12-08T06:26:04;7.03;;;3.47;;
5989;SDS011;14149;53.562;10.032;2022-12-08T06:28:30;7.70;;;3.70;;
5989;SDS011;14149;53.562;10.032;2022-12-08T06:30:57;6.77;;;3.47;;
5989;SDS011;14149;53.562;10.032;2022-12-08T06:33:23;9.23;;;4.37;;
5989;SDS011;14149;53.562;10.032;2022-12-08T06:35:50;7.63;;;3.97;;
5989;SDS011;14149;53.562;10.032;2022-12-08T06:38:16;6.80;;;3.37;;
5989;SDS011;14149;53.562;10.032;2022-12-08T06:40:42;6.60;;;3.03;;
5989;SDS011;14149;53.562;10.032;2022-12-08T06:43:08;7.40;;;3.80;;
5989;SDS011;14149;53.562;10.032;2022-12-08T06:45:34;7.50;;;4.30;;
5989;SDS011;14149;53.562;10.032;2022-12-08T06:48:01;8.80;;;4.70;;
5989;SDS011;14149;53.562;10.032;2022-12-08T06:50:27;9.40;;;5.07;;
5989;SDS011;14149;53.562;10.032;2022-12-08T06:52:53;9.53;;;4.90;;
5989;SDS011;14149;53.562;10.032;2022-12-08T06:55:19;7.60;;;4.20;;
5989;SDS011;14149;53.562;10.032;2022-12-08T06:57:46;10.33;;;5.70;;
5989;SDS011;14149;53.562;10.032;2022-12-08T07:00:13;13.73;;;6.53;;
5989;SDS011;14149;53.562;10.032;2022-12-08T07:02:40;11.17;;;5.37;;
5989;SDS011;14149;53.562;10.032;2022-12-08T07:05:07;9.63;;;5.43;;
5989;SDS011;14149;53.562;10.032;2022-12-08T07:07:33;10.77;;;5.33;;
5989;SDS011;14149;53.562;10.032;2022-12-08T07:09:59;8.83;;;5.10;;
5989;SDS011;14149;53.562;10.032;2022-12-08T07:12:25;9.23;;;5.33;;
5989;SDS011;14149;53.562;10.032;2022-12-08T07:14:51;10.93;;;6.47;;
5989;SDS011;14149;53.562;10.032;2022-12-08T07:17:17;9.57;;;5.90;;
5989;SDS011;14149;53.562;10.032;2022-12-08T07:19:43;11.60;;;5.70;;
5989;SDS011;14149;53.562;10.032;2022-12-08T07:22:09;15.23;;;7.47;;
5989;SDS011;14149;53.562;10.032;2022-12-08T07:24:35;11.30;;;5.93;;
5989;SDS011;14149;53.562;10.032;2022-12-08T07:27:01;11.10;;;6.13;;
5989;SDS011;14149;53.562;10.032;2022-12-08T07:29:27;10.20;;;5.30;;
5989;SDS011;14149;53.562;10.032;2022-12-08T07:31:54;11.83;;;6.80;;
5989;SDS011;14149;53.562;10.032;2022-12-08T07:34:20;11.50;;;6.10;;
5989;SDS011;14149;53.562;10.032;2022-12-08T07:36:46;10.77;;;6.13;;
5989;SDS011;14149;53.562;10.032;2022-12-08T07:39:12;13.87;;;7.00;;
5989;SDS011;14149;53.562;10.032;2022-12-08T07:41:38;13.63;;;6.97;;
5989;SDS011;14149;53.562;10.032;2022-12-08T07:44:04;9.33;;;5.30;;
5989;SDS011;14149;53.562;10.032;2022-12-08T07:46:30;12.63;;;6.80;;
5989;SDS011;14149;53.562;10.032;2022-12-08T07:48:56;13.50;;;6.77;;
5989;SDS011;14149;53.562;10.032;2022-12-08T07:51:22;13.87;;;7.67;;
5989;SDS011;14149;53.562;10.032;2022-12-08T07:53:49;17.03;;;6.73;;
5989;SDS011;14149;53.562;10.032;2022-12-08T07:56:15;13.43;;;7.33;;
5989;SDS011;14149;53.562;10.032;2022-12-08T07:58:42;11.97;;;6.17;;
5989;SDS011;14149;53.562;10.032;2022-12-08T08:01:17;13.80;;;7.80;;
5989;SDS011;14149;53.562;10.032;2022-12-08T08:03:43;16.30;;;7.70;;
5989;SDS011;14149;53.562;10.032;2022-12-08T08:06:09;15.20;;;8.20;;
5989;SDS011;14149;53.562;10.032;2022-12-08T08:08:35;13.37;;;8.03;;
5989;SDS011;14149;53.562;10.032;2022-12-08T08:11:04;17.97;;;9.43;;
5989;SDS011;14149;53.562;10.032;2022-12-08T08:13:30;13.17;;;7.30;;
5989;SDS011;14149;53.562;10.032;2022-12-08T08:16:07;18.10;;;8.97;;
5989;SDS011;14149;53.562;10.032;2022-12-08T08:18:33;16.27;;;7.70;;
5989;SDS011;14149;53.562;10.032;2022-12-08T08:21:00;16.90;;;8.20;;
5989;SDS011;14149;53.562;10.032;2022-12-08T08:23:26;11.93;;;6.43;;
5989;SDS011;14149;53.562;10.032;2022-12-08T08:25:53;17.63;;;8.50;;
5989;SDS011;14149;53.562;10.032;2022-12-08T08:28:19;13.77;;;8.03;;
5989;SDS011;14149;53.562;10.032;2022-12-08T08:30:46;17.13;;;8.80;;
5989;SDS011;14149;53.562;10.032;2022-12-08T08:33:12;14.70;;;7.57;;
5989;SDS011;14149;53.562;10.032;2022-12-08T08:35:38;14.17;;;7.67;;
5989;SDS011;14149;53.562;10.032;2022-12-08T08:38:06;13.17;;;7.60;;
5989;SDS011;14149;53.562;10.032;2022-12-08T08:40:32;14.50;;;7.30;;
5989;SDS011;14149;53.562;10.032;2022-12-08T08:43:02;13.53;;;6.93;;
5989;SDS011;14149;53.562;10.032;2022-12-08T08:45:28;18.60;;;7.50;;
5989;SDS011;14149;53.562;10.032;2022-12-08T08:47:54;14.23;;;7.03;;
5989;SDS011;14149;53.562;10.032;2022-12-08T08:50:21;12.47;;;6.20;;
5989;SDS011;14149;53.562;10.032;2022-12-08T08:52:47;13.00;;;6.80;;
5989;SDS011;14149;53.562;10.032;2022-12-08T08:55:14;13.10;;;6.70;;
5989;SDS011;14149;53.562;10.032;2022-12-08T08:57:40;9.20;;;5.53;;
5989;SDS011;14149;53.562;10.032;2022-12-08T09:00:06;12.37;;;6.77;;
5989;SDS011;14149;53.562;10.032;2022-12-08T09:02:34;12.83;;;6.67;;
5989;SDS011;14149;53.562;10.032;2022-12-08T09:05:00;13.80;;;6.03;;
5989;SDS011;14149;53.562;10.032;2022-12-08T09:07:26;10.50;;;5.73;;
5989;SDS011;14149;53.562;10.032;2022-12-08T09:09:52;10.20;;;5.37;;
5989;SDS011;14149;53.562;10.032;2022-12-08T09:12:19;12.13;;;6.10;;
5989;SDS011;14149;53.562;10.032;2022-12-08T09:14:45;9.90;;;5.40;;
5989;SDS011;14149;53.562;10.032;2022-12-08T09:17:12;13.40;;;5.80;;
5989;SDS011;14149;53.562;10.032;2022-12-08T09:19:38;11.70;;;6.00;;
5989;SDS011;14149;53.562;10.032;2022-12-08T09:22:04;11.30;;;5.23;;
5989;SDS011;14149;53.562;10.032;2022-12-08T09:24:30;14.60;;;7.53;;
5989;SDS011;14149;53.562;10.032;2022-12-08T09:26:56;13.97;;;7.17;;
5989;SDS011;14149;53.562;10.032;2022-12-08T09:29:23;12.97;;;6.33;;
5989;SDS011;14149;53.562;10.032;2022-12-08T09:31:49;12.10;;;6.37;;
5989;SDS011;14149;53.562;10.032;2022-12-08T09:34:15;12.97;;;6.47;;
5989;SDS011;14149;53.562;10.032;2022-12-08T09:36:41;13.20;;;6.50;;
5989;SDS011;14149;53.562;10.032;2022-12-08T09:39:07;11.40;;;6.53;;
5989;SDS011;14149;53.562;10.032;2022-12-08T09:41:34;10.97;;;5.67;;
5989;SDS011;14149;53.562;10.032;2022-12-08T09:46:46;13.80;;;6.77;;
5989;SDS011;14149;53.562;10.032;2022-12-08T09:49:14;16.00;;;6.97;;
5989;SDS011;14149;53.562;10.032;2022-12-08T09:51:42;14.60;;;7.13;;
5989;SDS011;14149;53.562;10.032;2022-12-08T09:54:19;12.73;;;6.10;;
5989;SDS011;14149;53.562;10.032;2022-12-08T09:56:47;13.10;;;6.77;;
5989;SDS011;14149;53.562;10.032;2022-12-08T09:59:21;11.73;;;5.80;;
5989;SDS011;14149;53.562;10.032;2022-12-08T10:01:48;12.20;;;6.60;;
5989;SDS011;14149;53.562;10.032;2022-12-08T10:04:33;12.57;;;6.43;;
5989;SDS011;14149;53.562;10.032;2022-12-08T10:17:52;10.90;;;5.57;;
5989;SDS011;14149;53.562;10.032;2022-12-08T10:20:23;12.77;;;6.10;;
5989;SDS011;14149;53.562;10.032;2022-12-08T10:22:50;8.17;;;4.50;;
5989;SDS011;14149;53.562;10.032;2022-12-08T10:25:32;8.60;;;5.43;;
5989;SDS011;14149;53.562;10.032;2022-12-08T10:28:01;10.63;;;5.50;;
5989;SDS011;14149;53.562;10.032;2022-12-08T10:30:27;10.57;;;5.10;;
5989;SDS011;14149;53.562;10.032;2022-12-08T10:32:53;17.70;;;5.50;;
5989;SDS011;14149;53.562;10.032;2022-12-08T10:35:20;10.90;;;4.93;;
5989;SDS011;14149;53.562;10.032;2022-12-08T10:37:56;10.43;;;5.30;;
5989;SDS011;14149;53.562;10.032;2022-12-08T10:40:23;10.70;;;5.33;;
5989;SDS011;14149;53.562;10.032;2022-12-08T10:42:51;9.30;;;3.90;;
5989;SDS011;14149;53.562;10.032;2022-12-08T10:45:20;10.43;;;5.43;;
5989;SDS011;14149;53.562;10.032;2022-12-08T10:47:57;12.67;;;5.60;;
5989;SDS011;14149;53.562;10.032;2022-12-08T10:50:35;11.60;;;5.37;;
5989;SDS011;14149;53.562;10.032;2022-12-08T10:55:27;9.70;;;5.53;;
5989;SDS011;14149;53.562;10.032;2022-12-08T10:57:54;9.80;;;4.50;;
5989;SDS011;14149;53.562;10.032;2022-12-08T11:00:22;12.07;;;6.23;;
5989;SDS011;14149;53.562;10.032;2022-12-08T11:02:50;13.47;;;6.57;;
5989;SDS011;14149;53.562;10.032;2022-12-08T11:05:16;9.53;;;5.50;;
5989;SDS011;14149;53.562;10.032;2022-12-08T11:07:46;11.43;;;5.97;;
5989;SDS011;14149;53.562;10.032;2022-12-08T11:10:16;12.83;;;6.00;;
5989;SDS011;14149;53.562;10.032;2022-12-08T11:12:42;12.00;;;5.67;;
5989;SDS011;14149;53.562;10.032;2022-12-08T11:15:13;12.07;;;5.30;;
5989;SDS011;14149;53.562;10.032;2022-12-08T11:17:40;14.57;;;6.70;;
5989;SDS011;14149;53.562;10.032;2022-12-08T11:22:41;10.43;;;5.47;;
5989;SDS011;14149;53.562;10.032;2022-12-08T11:27:40;16.87;;;6.77;;
5989;SDS011;14149;53.562;10.032;2022-12-08T11:30:23;14.03;;;6.70;;
5989;SDS011;14149;53.562;10.032;2022-12-08T11:32:52;17.50;;;7.47;;
5989;SDS011;14149;53.562;10.032;2022-12-08T11:37:45;10.20;;;5.80;;
5989;SDS011;14149;53.562;10.032;2022-12-08T11:45:33;11.33;;;5.83;;
5989;SDS011;14149;53.562;10.032;2022-12-08T11:48:10;12.30;;;6.50;;
5989;SDS011;14149;53.562;10.032;2022-12-08T11:53:29;12.60;;;6.97;;
5989;SDS011;14149;53.562;10.032;2022-12-08T11:55:59;11.97;;;6.00;;
5989;SDS011;14149;53.562;10.032;2022-12-08T11:58:46;12.27;;;5.60;;
5989;SDS011;14149;53.562;10.032;2022-12-08T12:01:20;14.50;;;6.33;;
5989;SDS011;14149;53.562;10.032;2022-12-08T12:04:30;10.43;;;5.43;;
5989;SDS011;14149;53.562;10.032;2022-12-08T12:11:44;11.03;;;6.27;;
5989;SDS011;14149;53.562;10.032;2022-12-08T12:14:38;14.33;;;7.10;;
5989;SDS011;14149;53.562;10.032;2022-12-08T12:19:56;17.27;;;6.67;;
5989;SDS011;14149;53.562;10.032;2022-12-08T12:22:24;15.60;;;6.93;;
5989;SDS011;14149;53.562;10.032;2022-12-08T12:24:54;10.70;;;5.97;;
5989;SDS011;14149;53.562;10.032;2022-12-08T12:27:21;9.20;;;5.27;;
5989;SDS011;14149;53.562;10.032;2022-12-08T12:32:20;10.83;;;5.37;;
5989;SDS011;14149;53.562;10.032;2022-12-08T12:34:48;10.23;;;5.20;;
5989;SDS011;14149;53.562;10.032;2022-12-08T12:37:48;10.47;;;5.33;;
5989;SDS011;14149;53.562;10.032;2022-12-08T12:40:17;9.97;;;5.70;;
5989;SDS011;14149;53.562;10.032;2022-12-08T12:43:10;11.97;;;6.20;;
5989;SDS011;14149;53.562;10.032;2022-12-08T12:45:36;11.87;;;5.40;;
5989;SDS011;14149;53.562;10.032;2022-12-08T12:53:03;10.70;;;6.30;;
5989;SDS011;14149;53.562;10.032;2022-12-08T12:58:22;9.80;;;5.87;;
5989;SDS011;14149;53.562;10.032;2022-12-08T13:03:46;9.43;;;5.23;;
5989;SDS011;14149;53.562;10.032;2022-12-08T13:06:14;10.50;;;5.00;;
5989;SDS011;14149;53.562;10.032;2022-12-08T13:08:49;10.17;;;5.47;;
5989;SDS011;14149;53.562;10.032;2022-12-08T13:11:16;12.80;;;5.93;;
5989;SDS011;14149;53.562;10.032;2022-12-08T13:13:58;11.73;;;6.20;;
5989;SDS011;14149;53.562;10.032;2022-12-08T13:16:26;11.70;;;6.50;;
5989;SDS011;14149;53.562;10.032;2022-12-08T13:18:56;10.20;;;5.33;;
5989;SDS011;14149;53.562;10.032;2022-12-08T13:21:23;13.20;;;6.40;;
5989;SDS011;14149;53.562;10.032;2022-12-08T13:26:47;10.53;;;5.90;;
5989;SDS011;14149;53.562;10.032;2022-12-08T13:34:29;11.60;;;5.77;;
5989;SDS011;14149;53.562;10.032;2022-12-08T13:47:18;12.20;;;5.90;;
5989;SDS011;14149;53.562;10.032;2022-12-08T13:49:56;10.20;;;5.27;;
5989;SDS011;14149;53.562;10.032;2022-12-08T13:52:31;9.83;;;5.83;;
5989;SDS011;14149;53.562;10.032;2022-12-08T13:54:59;11.43;;;6.67;;
5989;SDS011;14149;53.562;10.032;2022-12-08T13:57:28;12.20;;;6.20;;
5989;SDS011;14149;53.562;10.032;2022-12-08T13:59:58;12.20;;;6.80;;
5989;SDS011;14149;53.562;10.032;2022-12-08T14:02:37;11.23;;;5.50;;
5989;SDS011;14149;53.562;10.032;2022-12-08T14:05:04;10.20;;;4.57;;
5989;SDS011;14149;53.562;10.032;2022-12-08T14:07:30;10.17;;;5.00;;
5989;SDS011;14149;53.562;10.032;2022-12-08T14:09:57;12.37;;;5.73;;
5989;SDS011;14149;53.562;10.032;2022-12-08T14:12:25;11.20;;;4.80;;
5989;SDS011;14149;53.562;10.032;2022-12-08T14:14:55;11.57;;;5.80;;
5989;SDS011;14149;53.562;10.032;2022-12-08T14:17:22;9.53;;;5.00;;
5989;SDS011;14149;53.562;10.032;2022-12-08T14:19:59;11.33;;;4.90;;
5989;SDS011;14149;53.562;10.032;2022-12-08T14:22:32;9.70;;;5.23;;
5989;SDS011;14149;53.562;10.032;2022-12-08T14:24:59;11.60;;;5.67;;
5989;SDS011;14149;53.562;10.032;2022-12-08T14:27:26;9.30;;;5.23;;
5989;SDS011;14149;53.562;10.032;2022-12-08T14:30:00;10.27;;;5.60;;
5989;SDS011;14149;53.562;10.032;2022-12-08T14:32:32;11.47;;;5.70;;
5989;SDS011;14149;53.562;10.032;2022-12-08T14:35:00;13.07;;;5.80;;
5989;SDS011;14149;53.562;10.032;2022-12-08T14:37:27;10.40;;;5.00;;
5989;SDS011;14149;53.562;10.032;2022-12-08T14:39:59;9.90;;;5.43;;
5989;SDS011;14149;53.562;10.032;2022-12-08T14:42:26;9.00;;;4.90;;
5989;SDS011;14149;53.562;10.032;2022-12-08T14:44:57;11.07;;;5.30;;
5989;SDS011;14149;53.562;10.032;2022-12-08T14:47:27;10.83;;;5.40;;
5989;SDS011;14149;53.562;10.032;2022-12-08T14:49:53;11.90;;;5.40;;
5989;SDS011;14149;53.562;10.032;2022-12-08T14:52:19;8.30;;;4.90;;
5989;SDS011;14149;53.562;10.032;2022-12-08T14:54:47;9.40;;;4.70;;
5989;SDS011;14149;53.562;10.032;2022-12-08T14:57:14;11.10;;;5.60;;
5989;SDS011;14149;53.562;10.032;2022-12-08T14:59:40;9.70;;;5.40;;
5989;SDS011;14149;53.562;10.032;2022-12-08T15:02:29;11.00;;;5.80;;
5989;SDS011;14149;53.562;10.032;2022-12-08T15:04:55;10.30;;;5.03;;
5989;SDS011;14149;53.562;10.032;2022-12-08T15:07:23;9.87;;;4.70;;
5989;SDS011;14149;53.562;10.032;2022-12-08T15:10:06;10.17;;;5.20;;
5989;SDS011;14149;53.562;10.032;2022-12-08T15:12:32;11.20;;;5.80;;
5989;SDS011;14149;53.562;10.032;2022-12-08T15:15:16;10.13;;;5.50;;
5989;SDS011;14149;53.562;10.032;2022-12-08T15:17:44;12.00;;;6.33;;
5989;SDS011;14149;53.562;10.032;2022-12-08T15:20:54;13.27;;;6.40;;
5989;SDS011;14149;53.562;10.032;2022-12-08T15:23:00;11.70;;;6.70;;
5989;SDS011;14149;53.562;10.032;2022-12-08T15:25:26;11.00;;;5.90;;
5989;SDS011;14149;53.562;10.032;2022-12-08T15:27:52;12.30;;;6.53;;
5989;SDS011;14149;53.562;10.032;2022-12-08T15:30:20;9.90;;;5.87;;
5989;SDS011;14149;53.562;10.032;2022-12-08T15:32:47;12.17;;;6.10;;
5989;SDS011;14149;53.562;10.032;2022-12-08T15:35:16;12.53;;;6.27;;
5989;SDS011;14149;53.562;10.032;2022-12-08T15:37:42;12.87;;;6.27;;
5989;SDS011;14149;53.562;10.032;2022-12-08T15:40:12;10.97;;;5.77;;
5989;SDS011;14149;53.562;10.032;2022-12-08T15:42:40;10.93;;;6.47;;
5989;SDS011;14149;53.562;10.032;2022-12-08T15:45:06;11.67;;;6.20;;
5989;SDS011;14149;53.562;10.032;2022-12-08T15:47:32;11.40;;;6.67;;
5989;SDS011;14149;53.562;10.032;2022-12-08T15:49:59;12.57;;;7.43;;
5989;SDS011;14149;53.562;10.032;2022-12-08T15:52:28;13.90;;;6.47;;
5989;SDS011;14149;53.562;10.032;2022-12-08T15:54:54;11.63;;;6.23;;
5989;SDS011;14149;53.562;10.032;2022-12-08T15:57:24;15.07;;;7.30;;
5989;SDS011;14149;53.562;10.032;2022-12-08T15:59:51;14.67;;;6.83;;
5989;SDS011;14149;53.562;10.032;2022-12-08T16:02:17;14.93;;;8.20;;
5989;SDS011;14149;53.562;10.032;2022-12-08T16:04:44;12.43;;;7.30;;
5989;SDS011;14149;53.562;10.032;2022-12-08T16:09:48;14.60;;;8.17;;
5989;SDS011;14149;53.562;10.032;2022-12-08T16:12:15;12.23;;;7.40;;
5989;SDS011;14149;53.562;10.032;2022-12-08T16:15:00;13.40;;;6.40;;